Szczecin-Goleniow Solidarnosc Airport Goleniow PL
ICAO: EPSC
IATA: SZZ
Category: Medium
Scheduled Services: Yes

Elevation: 154 ft
TransAlt. 6500 ft.

Airport Communications:
SZCZECIN TWR:118.5

EPSC Zoom In..

If you have problems with the map follow the link
https://www.worldairports.se/pages/airport.php?
ICAO=EPSC

Runways:

(A) RW 13 length 8202 ft width 197 ft
---- / hdg 128

(B) RW 31 length 8202 ft width 197 ft
ILS 110.50 / hdg 308

Location; EPSC
Day. 14 / Time. 08.00 Zulu
* QNH: 1009
* Temperature: 04° c. 39.2°f.
* Wind from: 150° Speed 08 kn.
Dewpoint: 03° c.
Visibility: 10 km or more,
No clouds below 1,500 m.
No cumulonimbus, and no significant weather
fenomena in the aerodrome or its vicinity.

EPSC 140800Z 15008KT CAVOK 04/03 Q1009


Wind From 150°
Speed 08 kn.

 
 
jpsmedia worldairports.se 2019   terms of use